Llandovery, United Kingdom
Current Conditions -  °F | °C
As of 9:50 AM on Monday 20 Oct 2014 (Local Time) from EGOP Reporting Station
Broken Clouds Broken Clouds  
Wind Chill: 59°   Ceiling: 5000
Heat Index: 59°   Visibility: 6mi
Dew Point: 52°   Wind: 25mph
Humidity: 77%   Direction: 250°WSW
Pressure: 30"   Gusts: NA
Location:  51.99°N, 3.8°W
Report Text: EGOP 200850Z 25022KT 9999 SCT020 BKN050 15/11 Q1016 WHT
Loading
Personal Weather Stations






























Interactive Weather Map
Tropical Storm Tracking
New forecast layout! Learn more

10-Day Weather Forecast

Advertisements
Track Severe Weather on mobile